Terminal Aerodrome Forecast
Issued by NWS Des Moines, IA

Home | Current Version | Previous Version | Text Only | Print | Product List | Glossary On
Versions: 1 2 3 4 5 6 7 8 9 10 11 12 13 14 15 16 17 18 19 20 21 22 23 24 25 26 27 28 29
000
FTUS43 KDMX 262344 AAA
TAFDSM
TAF AMD
KDSM 262344Z 2700/2724 20014KT 3SM TSRA BR SCT008 OVC025CB
     FM270100 16007KT P6SM -TSRA SCT030 OVC050CB
     FM270900 13009KT P6SM VCSH BKN020 OVC040
     FM271500 18009KT P6SM VCSH BKN030 OVC050
     FM272000 18009KT P6SM VCSH SCT040 BKN080=

USA.gov is the U.S. government's official web portal to all federal, state and local government web resources and services.